• Join FlightAware (Why Join?)
  • Login
  • US Flag 
05:01AM EST


 

Airport Tracker/Info


-or-


 

Live Flight TrackerFlight Track Log ✈ N39418 ✈ 27-Apr-2012 ✈ MMPR / PVR - KIAH

Flight Track Log - Related Links

Times and Time Zones

All times are in EDT time to prevent confusion due to time zone crossing. See the N39418 flight status page for this flight to view local times or setup timezone preferences in your user account.

Time Position Orientation Groundspeed Altitude Reporting Facility
EDT Latitude Longitude Course Direction KTS MPH feet Rate Location/Type
04:20PM 20.7013 -105.2361 42° Northeast  Level FlightAware Approximate
04:21PM 20.7861 -105.1636 42° Northeast  Level FlightAware Approximate
04:22PM 20.8709 -105.0911 42° Northeast  Level FlightAware Approximate
04:23PM 20.9557 -105.0185 42° Northeast  Level FlightAware Approximate
04:24PM 21.0404 -104.9459 42° Northeast  Level FlightAware Approximate
04:25PM 21.1251 -104.8731 42° Northeast  Level FlightAware Approximate
04:26PM 21.2098 -104.8003 43° Northeast  Level FlightAware Approximate
04:27PM 21.2944 -104.7273 43° Northeast  Level FlightAware Approximate
04:28PM 21.3790 -104.6543 43° Northeast  Level FlightAware Approximate
04:29PM 21.4636 -104.5812 43° Northeast  Level FlightAware Approximate
04:30PM 21.5481 -104.5080 43° Northeast  Level FlightAware Approximate
04:31PM 21.6326 -104.4348 43° Northeast  Level FlightAware Approximate
04:32PM 21.7171 -104.3614 43° Northeast  Level FlightAware Approximate
04:33PM 21.8015 -104.2880 43° Northeast  Level FlightAware Approximate
04:34PM 21.8860 -104.2144 43° Northeast  Level FlightAware Approximate
04:35PM 21.9703 -104.1408 43° Northeast  Level FlightAware Approximate
04:36PM 22.0547 -104.0671 44° Northeast  Level FlightAware Approximate
04:37PM 22.1390 -103.9933 44° Northeast  Level FlightAware Approximate
04:38PM 22.2233 -103.9195 44° Northeast  Level FlightAware Approximate
04:39PM 22.3075 -103.8455 44° Northeast  Level FlightAware Approximate
04:40PM 22.3917 -103.7715 44° Northeast  Level FlightAware Approximate
04:41PM 22.4759 -103.6973 44° Northeast  Level FlightAware Approximate
04:42PM 22.5537 -103.6154 44° Northeast  Level FlightAware Approximate
04:43PM 22.6314 -103.5333 44° Northeast  Level FlightAware Approximate
04:44PM 22.7091 -103.4512 44° Northeast  Level FlightAware Approximate
04:45PM 22.7868 -103.3689 44° Northeast  Level FlightAware Approximate
04:46PM 22.8644 -103.2866 44° Northeast  Level FlightAware Approximate
04:47PM 22.9439 -103.2021 44° Northeast  Level FlightAware Approximate
04:48PM 23.0234 -103.1176 44° Northeast  Level FlightAware Approximate
04:49PM 23.1023 -103.0323 44° Northeast  Level FlightAware Approximate
04:50PM 23.1811 -102.9470 44° Northeast  Level FlightAware Approximate
04:51PM 23.2599 -102.8615 45° Northeast  Level FlightAware Approximate
04:52PM 23.3386 -102.7760 45° Northeast  Level FlightAware Approximate
04:53PM 23.4174 -102.6903 45° Northeast  Level FlightAware Approximate
04:54PM 23.4953 -102.6039 45° Northeast  Level FlightAware Approximate
04:55PM 23.5733 -102.5173 45° Northeast  Level FlightAware Approximate
04:56PM 23.6511 -102.4306 45° Northeast  Level FlightAware Approximate
04:57PM 23.7290 -102.3438 45° Northeast  Level FlightAware Approximate
04:58PM 23.8068 -102.2569 45° Northeast  Level FlightAware Approximate
04:59PM 23.8845 -102.1699 45° Northeast  Level FlightAware Approximate
05:00PM 23.9622 -102.0828 45° Northeast  Level FlightAware Approximate
05:01PM 24.0398 -101.9956 45° Northeast  Level FlightAware Approximate
05:02PM 24.1174 -101.9083 44° Northeast  Level FlightAware Approximate
05:03PM 24.1950 -101.8209 44° Northeast  Level FlightAware Approximate
05:04PM 24.2724 -101.7333 44° Northeast  Level FlightAware Approximate
05:05PM 24.3499 -101.6457 44° Northeast  Level FlightAware Approximate
05:06PM 24.4273 -101.5580 44° Northeast  Level FlightAware Approximate
05:07PM 24.5046 -101.4701 44° Northeast  Level FlightAware Approximate
05:08PM 24.5819 -101.3821 44° Northeast  Level FlightAware Approximate
05:09PM 24.6591 -101.2941 44° Northeast  Level FlightAware Approximate
05:10PM 24.7363 -101.2059 44° Northeast  Level FlightAware Approximate
05:11PM 24.8134 -101.1176 44° Northeast  Level FlightAware Approximate
05:12PM 24.8905 -101.0292 44° Northeast  Level FlightAware Approximate
05:13PM 24.9676 -100.9407 44° Northeast  Level FlightAware Approximate
05:14PM 25.0445 -100.8521 43° Northeast  Level FlightAware Approximate
05:15PM 25.1215 -100.7634 43° Northeast  Level FlightAware Approximate
05:16PM 25.1983 -100.6746 43° Northeast  Level FlightAware Approximate
05:17PM 25.2836 -100.5905 43° Northeast  Level FlightAware Approximate
05:18PM 25.3687 -100.5063 43° Northeast  Level FlightAware Approximate
05:19PM 25.4539 -100.4220 44° Northeast  Level FlightAware Approximate
05:20PM 25.5390 -100.3376 44° Northeast  Level FlightAware Approximate
05:21PM 25.6240 -100.2530 45° Northeast  Level FlightAware Approximate
05:23PM 25.8725 -99.9792 48° Northeast 452 520 35,000  Level Houston Center
05:24PM 25.9581 -99.8722 46° Northeast 458 527 35,000 -60 Level Houston Center
05:25PM 26.0475 -99.7703 48° Northeast 463 533 34,900  Descending Houston Center
05:26PM 26.1331 -99.6633 47° Northeast 463 533 35,000  Climbing Houston Center
05:27PM 26.2203 -99.5583 48° Northeast 463 533 35,000  Level Houston Center
05:28PM 26.3056 -99.4511 48° Northeast 463 533 35,000 -60 Level Houston Center
05:29PM 26.3908 -99.3458 43° Northeast 463 533 34,900  Descending Houston Center
05:30PM 26.4858 -99.2481 41° Northeast 463 533 35,000  Climbing Houston Center
05:31PM 26.5828 -99.1547 41° Northeast 457 526 35,000  Level Houston Center
05:32PM 26.6817 -99.0592 41° Northeast 457 526 35,000  Level Houston Center
05:33PM 26.7808 -98.9611 41° Northeast 465 535 35,000  Level Houston Center
05:34PM 26.8819 -98.8608 41° Northeast 465 535 35,000  Level Houston Center
05:35PM 26.9853 -98.7606 41° Northeast 470 541 35,000  Level Houston Center
05:36PM 27.0861 -98.6619 41° Northeast 476 548 35,000  Level Houston Center
05:37PM 27.1894 -98.5614 42° Northeast 476 548 35,000  Level Houston Center
05:38PM 27.2883 -98.4600 40° Northeast 476 548 35,000  Level Houston Center
05:39PM 27.3933 -98.3614 41° Northeast 476 548 35,000 -60 Level Houston Center
05:40PM 27.4939 -98.2622 42° Northeast 476 548 34,900  Descending Houston Center
05:41PM 27.5928 -98.1606 41° Northeast 476 548 35,000  Climbing Houston Center
05:42PM 27.6933 -98.0608 42° Northeast 476 548 35,000  Level Houston Center
05:43PM 27.7853 -97.9678 41° Northeast 482 555 35,000  Level Houston Center
05:44PM 27.8858 -97.8681 43° Northeast 482 555 35,000  Level Houston Center
05:45PM 27.9867 -97.7633 39° Northeast 482 555 35,000  Level Houston Center
05:46PM 28.0889 -97.6703 42° Northeast 482 555 35,000  Level Houston Center
05:47PM 28.1892 -97.5675 41° Northeast 477 549 35,000 -60 Level Houston Center
05:48PM 28.2917 -97.4647 42° Northeast 477 549 34,900 -60 Descending Houston Center
05:49PM 28.3900 -97.3636 41° Northeast 477 549 34,900  Level Houston Center
05:50PM 28.4922 -97.2628 42° Northeast 477 549 34,900 -480 Level Houston Center
05:51PM 28.5925 -97.1594 42° Northeast 477 549 34,000 -960 Descending Houston Center
05:52PM 28.6925 -97.0556 42° Northeast 477 549 33,000 -1,620 Descending Houston Center
05:53PM 28.7925 -96.9517 44° Northeast 477 549 30,800 -2,400 Descending Houston Center
05:54PM 28.8906 -96.8453 42° Northeast 477 549 28,200 -2,460 Descending Houston Center
05:55PM 28.9861 -96.7478 41° Northeast 471 542 25,900 -2,280 Descending Houston Center
05:56PM 29.0814 -96.6528 42° Northeast 455 524 23,700 -2,400 Descending Houston Center
05:58PM 29.2454 -96.4812 42° Northeast 412 474 19,400 -2,460 Descending FlightAware ADS-B
05:59PM 29.2875 -96.4373 42° Northeast 403 464 18,300 -2,220 Descending FlightAware ADS-B
05:59PM 29.3285 -96.3945 42° Northeast 397 457 17,200 -2,220 Descending FlightAware ADS-B
06:00PM 29.3691 -96.3522 42° Northeast 390 449 16,100 -2,220 Descending FlightAware ADS-B
06:00PM 29.4100 -96.3095 42° Northeast 383 441 15,000 -2,100 Descending FlightAware ADS-B
06:01PM 29.4491 -96.2687 42° Northeast 379 436 14,000 -2,100 Descending FlightAware ADS-B
06:01PM 29.4881 -96.2278 42° Northeast 375 432 12,900 -1,800 Descending FlightAware ADS-B
06:02PM 29.5259 -96.1880 46° Northeast 367 422 12,200 -1,200 Descending FlightAware ADS-B
06:02PM 29.5398 -96.1712 52° Northeast 365 420 12,100 -600 Descending FlightAware ADS-B
06:02PM 29.5510 -96.1548 57° Northeast 360 414 12,000 -300 Descending FlightAware ADS-B
06:02PM 29.5607 -96.1373 60° Northeast 357 411 12,000 120 Level FlightAware ADS-B
06:03PM 29.5860 -96.0876 60° Northeast 355 409 12,100 -540 Climbing FlightAware ADS-B
06:03PM 29.6113 -96.0374 60° Northeast 356 410 11,500 -1,500 Descending FlightAware ADS-B
06:04PM 29.6358 -95.9884 60° Northeast 352 405 10,600 -1,500 Descending FlightAware ADS-B
06:04PM 29.6603 -95.9399 60° Northeast 345 397 10,000 -600 Descending FlightAware ADS-B
06:05PM 29.6844 -95.8921 60° Northeast 343 395 10,000 60 Level FlightAware ADS-B
06:05PM 29.7081 -95.8447 60° Northeast 343 395 10,100 60 Climbing FlightAware ADS-B
06:06PM 29.7326 -95.7958 60° Northeast 344 396 10,100 -120 Level FlightAware ADS-B
06:06PM 29.7558 -95.7496 60° Northeast 320 368 10,000 -300 Descending FlightAware ADS-B
06:07PM 29.7672 -95.7269 60° Northeast 309 356 9,900 -780 Descending FlightAware ADS-B
06:07PM 29.7780 -95.7051 60° Northeast 304 350 9,600 -1,200 Descending FlightAware ADS-B
06:07PM 29.7888 -95.6835 60° Northeast 299 344 9,300 -1,020 Descending FlightAware ADS-B
06:07PM 29.7993 -95.6624 60° Northeast 294 338 9,100 -1,020 Descending FlightAware ADS-B
06:08PM 29.8098 -95.6415 60° Northeast 290 334 8,800 -1,320 Descending FlightAware ADS-B
06:08PM 29.8204 -95.6201 60° Northeast 289 333 8,400 -1,320 Descending FlightAware ADS-B
06:08PM 29.8311 -95.5984 60° Northeast 287 330 8,100 -1,320 Descending FlightAware ADS-B
06:08PM 29.8413 -95.5781 60° Northeast 286 329 7,700 -1,380 Descending FlightAware ADS-B
06:09PM 29.8517 -95.5572 60° Northeast 285 328 7,400 -1,380 Descending FlightAware ADS-B
06:09PM 29.8648 -95.5309 60° Northeast 284 327 6,900 -1,380 Descending FlightAware ADS-B
06:09PM 29.8749 -95.5109 60° Northeast 284 327 6,600 -1,200 Descending FlightAware ADS-B
06:09PM 29.8854 -95.4897 62° Northeast 283 326 6,300 -1,380 Descending FlightAware ADS-B
06:10PM 29.8894 -95.4810 68° East 283 326 6,100 -960 Descending FlightAware ADS-B
06:10PM 29.8923 -95.4726 75° East 278 320 6,100 -600 Level FlightAware ADS-B
06:10PM 29.8933 -95.4684 79° East 276 318 6,000 -600 Descending FlightAware ADS-B
06:10PM 29.8954 -95.4561 86° East 270 311 6,000  Level FlightAware ADS-B
06:10PM 29.8958 -95.4487 90° East 269 310 6,000 180 Level FlightAware ADS-B
06:10PM 29.8959 -95.4125 90° East 270 311 6,100 120 Climbing FlightAware ADS-B
06:11PM 29.8961 -95.3799 89° East 270 311 6,100  Level FlightAware ADS-B
06:11PM 29.8963 -95.3548 90° East 269 310 6,100 -180 Level FlightAware ADS-B
06:11PM 29.8964 -95.3263 90° East 258 297 6,000 -180 Descending FlightAware ADS-B
06:12PM 29.8965 -95.3057 90° East 247 284 6,000  Level FlightAware ADS-B
06:12PM 29.8966 -95.2852 90° East 241 277 6,000 120 Level FlightAware ADS-B
06:12PM 29.8966 -95.2482 90° East 238 274 6,100 -300 Climbing FlightAware ADS-B
06:13PM 29.8967 -95.2296 90° East 229 264 5,800 -1,440 Descending FlightAware ADS-B
06:13PM 29.8968 -95.2118 90° East 234 269 5,400 -1,800 Descending FlightAware ADS-B
06:13PM 29.8969 -95.1960 92° East 235 270 5,000 -1,080 Descending FlightAware ADS-B
06:13PM 29.8966 -95.1843 90° East 229 264 4,900 -600 Descending FlightAware ADS-B
06:13PM 29.8966 -95.1764 89° East 228 262 4,800 -2,040 Descending FlightAware ADS-B
06:14PM 29.8967 -95.1678 83° East 226 260 4,600 -2,280 Descending FlightAware ADS-B
06:14PM 29.8974 -95.1608 75° East 227 261 4,500 -1,500 Descending FlightAware ADS-B
06:14PM 29.8984 -95.1565 69° East 228 262 4,400 -1,500 Descending FlightAware ADS-B
06:14PM 29.8997 -95.1525 59° Northeast 230 265 4,300 -960 Descending FlightAware ADS-B
06:14PM 29.9037 -95.1449 44° Northeast 233 268 4,200 -1,440 Descending FlightAware ADS-B
06:14PM 29.9097 -95.1382 34° Northeast 237 273 4,000 -2,580 Descending FlightAware ADS-B
06:14PM 29.9128 -95.1358 27° Northeast 238 274 3,900 -900 Descending FlightAware ADS-B
06:14PM 29.9162 -95.1338 20° North 239 275 3,900 -780 Level FlightAware ADS-B
06:14PM 29.9204 -95.1320 13° North 239 275 3,800 -1,500 Descending FlightAware ADS-B
06:14PM 29.9247 -95.1309 North 239 275 3,700 -1,500 Descending FlightAware ADS-B
06:14PM 29.9297 -95.1305 358° North 238 274 3,600 -1,500 Descending FlightAware ADS-B
06:14PM 29.9337 -95.1307 350° North 236 272 3,500 -1,740 Descending FlightAware ADS-B
06:14PM 29.9373 -95.1314 345° North 235 270 3,400 -1,740 Descending FlightAware ADS-B
06:14PM 29.9409 -95.1325 338° Northwest 234 269 3,300 -1,740 Descending FlightAware ADS-B
06:15PM 29.9445 -95.1342 332° Northwest 234 269 3,200 -2,040 Descending FlightAware ADS-B
06:15PM 29.9473 -95.1359 325° Northwest 234 269 3,100 -1,740 Descending FlightAware ADS-B
06:15PM 29.9504 -95.1384 318° Northwest 233 268 3,000 -1,500 Descending FlightAware ADS-B
06:15PM 29.9539 -95.1421 312° West 229 264 2,900 -900 Descending FlightAware ADS-B
06:15PM 29.9560 -95.1448 304° West 227 261 2,900 -1,020 Level FlightAware ADS-B
06:15PM 29.9578 -95.1479 300° West 224 258 2,800 -1,740 Descending FlightAware ADS-B
06:15PM 29.9596 -95.1515 294° West 221 254 2,700 -900 Descending FlightAware ADS-B
06:15PM 29.9610 -95.1552 287° West 215 247 2,700 -1,200 Level FlightAware ADS-B
06:15PM 29.9627 -95.1618 286° West 208 239 2,500 -1,320 Descending FlightAware ADS-B
06:15PM 29.9647 -95.1698 287° West 203 234 2,400 -780 Descending FlightAware ADS-B
06:15PM 29.9690 -95.1860 286° West 192 221 2,200 -900 Descending FlightAware ADS-B
06:16PM 29.9717 -95.1969 287° West 184 212 2,000 -960 Descending FlightAware ADS-B
06:16PM 29.9752 -95.2105 284° West 175 201 1,800 -900 Descending FlightAware ADS-B
06:16PM 29.9762 -95.2150 279° West 173 199 1,700 -1,320 Descending FlightAware ADS-B
06:16PM 29.9773 -95.2227 272° West 167 192 1,500 -1,080 Descending FlightAware ADS-B
06:16PM 29.9775 -95.2298 269° West 164 189 1,400 -1,020 Descending FlightAware ADS-B
06:16PM 29.9773 -95.2392 271° West 164 189 1,200 -900 Descending FlightAware ADS-B
06:17PM 29.9774 -95.2479 273° West 166 191 1,100 -960 Descending FlightAware ADS-B
06:17PM 29.9778 -95.2559 271° West 163 188 900 -1,020 Descending FlightAware ADS-B
06:17PM 29.9779 -95.2633 269° West 162 186 800 -720 Descending FlightAware ADS-B
06:17PM 29.9778 -95.2703 269° West 161 185 700 -840 Descending FlightAware ADS-B
06:17PM 29.9777 -95.2763 270° West 163 188 600 -840 Descending FlightAware ADS-B
06:17PM 29.9777 -95.2827 269° West 162 186 500 -840 Descending FlightAware ADS-B
06:17PM 29.9776 -95.2892 270° West 161 185 400 -960 Descending FlightAware ADS-B
06:18PM 29.9776 -95.2990 270° West 156 180 200 -1,020 Descending FlightAware ADS-B